EmailTwitter


Observations de surface / Québec / CYND

Régions: Québec | Canada | États-Unis | Europe | France | UK | Ailleurs
Station
Affichage
Infos & localisation pour CYND | Aide pour décoder les METARs

Observations prises le 2018-09-24 à 17H00 UTC à OTTAWA GATINEAU, QB (CYND)

Etat du ciel: ciel variable.

Température: 12.0 Celsius

Point de rosée: 1.0 Celsius

Humidité relative: 47%

Facteur vent: 10.

Facteur vent (rafales): 9.

Vents: Est à 22 km/h ou 12 noeuds.

Rafale du vent: 33 km/h ou 18 noeuds.

Pression au niveau moyen de la mer: 103.45 kilopascals.

Calage altimétrique: 103.42 kilopascals ou 30.54 pouces de mercure.

Visibilité horizontale: 15.00 milles terrestres ou 24.00 kilomètres.

Observation METAR:

CYND 241700Z 09012G18KT 15SM SCT240 12/01 A3054 RMK CI3 SLP345=